Time;durP1;ratioP1;P1;durP2;ratioP2;P2;SDS_P1;SDS_P2;PMS_P1;PMS_P2;Temp;Humidity;BMP_temperature;BMP_pressure;BME280_temperature;BME280_humidity;BME280_pressure;Samples;Min_cycle;Max_cycle;Signal;HPM_P1;HPM_P2
2023/09/04 00:00:55;;;;;;;38.40;21.48;;;;;;;13.11;71.65;100332.00;4945028;29;20078;-78
2023/09/04 00:03:24;;;;;;;40.30;21.95;;;;;;;13.35;71.77;100377.03;4944253;29;20498;-76
2023/09/04 00:05:50;;;;;;;39.95;22.83;;;;;;;13.19;71.67;100342.34;4929919;29;20047;-81
2023/09/04 00:08:18;;;;;;;35.08;20.70;;;;;;;13.30;71.59;100360.53;4933895;29;20047;-83
2023/09/04 00:10:44;;;;;;;35.97;20.45;;;;;;;13.27;71.81;100355.34;4947280;29;20117;-83
2023/09/04 00:13:12;;;;;;;49.67;22.25;;;;;;;13.24;71.69;100356.25;4905520;29;20118;-82
2023/09/04 00:15:38;;;;;;;42.72;20.30;;;;;;;13.32;71.62;100368.38;4940302;29;20087;-83
2023/09/04 00:18:07;;;;;;;45.53;26.10;;;;;;;13.16;71.62;100347.63;4912211;29;20071;-78
2023/09/04 00:20:33;;;;;;;34.67;20.88;;;;;;;13.04;71.77;100332.94;4943901;29;20486;-77
2023/09/04 00:22:59;;;;;;;38.03;20.63;;;;;;;13.24;71.55;100371.06;4927113;29;20031;-75
2023/09/04 00:25:25;;;;;;;56.13;22.02;;;;;;;13.12;71.69;100356.38;4926209;29;20057;-75
2023/09/04 00:27:51;;;;;;;43.40;23.35;;;;;;;13.16;71.65;100363.28;4943636;29;20123;-75
2023/09/04 00:30:17;;;;;;;48.35;24.30;;;;;;;13.15;71.63;100371.16;4907910;29;20056;-76
2023/09/04 00:32:43;;;;;;;48.30;23.90;;;;;;;12.87;71.45;100327.03;4945767;28;20043;-76
2023/09/04 00:35:13;;;;;;;42.33;23.33;;;;;;;13.07;71.40;100372.09;4946390;28;20529;-82
2023/09/04 00:37:41;;;;;;;35.42;21.95;;;;;;;12.67;71.41;100311.56;4948387;29;20040;-82
2023/09/04 00:40:08;;;;;;;40.75;21.60;;;;;;;13.01;71.50;100366.06;4945997;29;20071;-83
2023/09/04 00:42:34;;;;;;;36.00;20.95;;;;;;;12.65;71.63;100322.88;4946043;29;20135;-82
2023/09/04 00:45:01;;;;;;;34.15;19.85;;;;;;;12.87;71.81;100354.03;4945416;28;20062;-81
2023/09/04 00:47:29;;;;;;;33.10;18.45;;;;;;;12.96;72.14;100366.13;4945137;28;20050;-81
2023/09/04 00:49:56;;;;;;;28.50;17.45;;;;;;;12.94;71.70;100373.09;4930400;29;20070;-81
2023/09/04 00:52:25;;;;;;;36.58;19.42;;;;;;;12.89;71.85;100367.06;4927982;29;20662;-81
2023/09/04 00:54:51;;;;;;;40.80;21.35;;;;;;;12.57;71.74;100332.50;4931926;29;20418;-83
2023/09/04 00:57:18;;;;;;;35.00;19.30;;;;;;;12.82;71.77;100374.09;4927982;29;20442;-83
2023/09/04 00:59:45;;;;;;;38.58;22.42;;;;;;;12.80;71.86;100381.06;4951140;28;20094;-85
2023/09/04 01:02:14;;;;;;;46.15;24.65;;;;;;;12.76;71.79;100371.50;4948607;29;20039;-81
2023/09/04 01:04:40;;;;;;;45.70;23.92;;;;;;;12.79;71.69;100372.38;4947582;28;20047;-82
2023/09/04 01:07:06;;;;;;;42.05;23.55;;;;;;;12.78;71.58;100377.59;4914282;29;20050;-81
2023/09/04 01:09:32;;;;;;;48.75;24.88;;;;;;;12.69;71.61;100359.41;4931110;29;20040;-79
2023/09/04 01:12:09;;;;;;;40.60;22.15;;;;;;;12.70;71.76;100363.72;4928527;29;20337;-81
2023/09/04 01:14:36;;;;;;;42.30;22.08;;;;;;;12.48;71.79;100333.47;4946029;29;20059;-79
2023/09/04 01:17:03;;;;;;;46.78;22.65;;;;;;;12.62;71.96;100362.06;4927966;29;20074;-81
2023/09/04 01:19:31;;;;;;;41.70;22.13;;;;;;;12.44;72.00;100342.19;4929323;29;20058;-80
2023/09/04 01:21:57;;;;;;;44.63;23.23;;;;;;;12.62;71.93;100359.47;4921908;29;20044;-81
2023/09/04 01:24:23;;;;;;;41.28;22.77;;;;;;;12.50;71.99;100347.38;4929515;29;20059;-78
2023/09/04 01:27:27;;;;;;;43.00;22.25;;;;;;;12.67;72.08;100377.69;4930675;29;20544;-82
2023/09/04 01:30:03;;;;;;;49.28;25.17;;;;;;;12.61;71.67;100380.34;4854673;29;20057;-80
2023/09/04 01:32:38;;;;;;;40.22;21.83;;;;;;;12.63;71.93;100384.69;4922767;29;20048;-77
2023/09/04 01:35:10;;;;;;;40.67;21.02;;;;;;;12.51;72.18;100356.06;4940976;29;20055;-77
2023/09/04 01:37:37;;;;;;;42.60;21.38;;;;;;;12.60;72.03;100376.88;4942360;28;20079;-77
2023/09/04 01:40:04;;;;;;;39.88;21.42;;;;;;;12.47;72.37;100352.59;4896218;29;20146;-77
2023/09/04 01:42:31;;;;;;;38.00;19.17;;;;;;;12.26;72.07;100316.25;4945754;29;20506;-83
2023/09/04 01:45:02;;;;;;;40.95;19.08;;;;;;;12.58;72.22;100370.78;4930110;29;20039;-81
2023/09/04 01:47:30;;;;;;;28.15;16.25;;;;;;;12.57;71.97;100376.91;4928438;29;20091;-81
2023/09/04 01:49:57;;;;;;;28.02;16.95;;;;;;;12.61;72.07;100376.00;4929172;29;20710;-82
2023/09/04 01:52:23;;;;;;;27.52;16.45;;;;;;;12.52;72.12;100370.84;4929797;29;20047;-78
2023/09/04 01:54:50;;;;;;;35.88;19.17;;;;;;;12.52;71.84;100388.25;4895586;29;20075;-86
2023/09/04 01:57:16;;;;;;;32.85;17.85;;;;;;;12.49;72.03;100389.13;4947561;28;20046;-84
2023/09/04 01:59:42;;;;;;;36.88;20.95;;;;;;;12.29;72.24;100358.81;4946079;29;20114;-85
2023/09/04 02:02:08;;;;;;;34.70;19.10;;;;;;;12.35;72.05;100374.44;4937558;29;20071;-83
2023/09/04 02:04:34;;;;;;;34.88;19.38;;;;;;;12.33;71.92;100373.59;4954404;28;20043;-84
2023/09/04 02:07:04;;;;;;;34.45;19.50;;;;;;;12.17;72.25;100353.69;4924285;29;20070;-87
2023/09/04 02:09:30;;;;;;;35.70;18.55;;;;;;;12.33;72.13;100376.19;4939586;29;20044;-88
2023/09/04 02:12:20;;;;;;;39.35;18.85;;;;;;;12.18;71.92;100358.06;4920129;29;20031;-81
2023/09/04 02:15:40;;;;;;;35.10;19.48;;;;;;;12.16;72.31;100365.00;4908370;29;20102;-83
2023/09/04 02:18:06;;;;;;;34.10;18.67;;;;;;;12.01;72.09;100342.50;4951341;28;20506;-82
2023/09/04 02:20:32;;;;;;;37.38;19.15;;;;;;;12.29;72.30;100403.19;4934800;29;20091;-81
2023/09/04 02:22:59;;;;;;;37.20;19.77;;;;;;;12.19;72.34;100385.88;4941765;29;20047;-82
2023/09/04 02:25:26;;;;;;;37.72;18.45;;;;;;;12.26;72.05;100386.69;4925638;29;20107;-85
2023/09/04 02:27:53;;;;;;;34.03;18.67;;;;;;;12.35;72.24;100405.75;4950929;28;20044;-83
2023/09/04 02:30:19;;;;;;;36.10;19.23;;;;;;;11.99;71.82;100345.13;4918489;29;20488;-87
2023/09/04 02:32:45;;;;;;;34.38;18.75;;;;;;;12.11;71.99;100364.16;4949572;29;20076;-86
2023/09/04 02:35:11;;;;;;;35.85;18.52;;;;;;;12.06;71.95;100361.59;4944346;29;20070;-87
2023/09/04 02:37:42;;;;;;;37.75;18.23;;;;;;;11.93;71.76;100350.34;4922202;29;20132;-86
2023/09/04 02:40:09;;;;;;;27.30;17.25;;;;;;;12.12;71.84;100381.56;4933050;29;20047;-88
2023/09/04 02:42:35;;;;;;;32.17;18.38;;;;;;;12.13;71.75;100385.91;4940021;29;20119;-87
2023/09/04 02:45:01;;;;;;;31.52;17.95;;;;;;;12.08;72.08;100378.09;4955250;28;20082;-86
2023/09/04 02:47:29;;;;;;;34.42;18.40;;;;;;;12.18;72.06;100392.81;4922964;29;20101;-86
2023/09/04 02:49:55;;;;;;;30.02;17.48;;;;;;;12.29;72.19;100413.63;4954156;28;20043;-89
2023/09/04 02:52:21;;;;;;;30.67;18.08;;;;;;;12.34;71.63;100419.69;4959848;29;20035;-88
2023/09/04 02:54:47;;;;;;;33.33;17.77;;;;;;;12.13;71.81;100392.00;4945212;29;20054;-86
2023/09/04 02:57:13;;;;;;;32.08;17.30;;;;;;;12.29;72.06;100420.59;4947092;29;20044;-88
2023/09/04 02:59:40;;;;;;;35.85;20.05;;;;;;;12.29;72.01;100418.84;4956141;29;20047;-88
2023/09/04 03:02:08;;;;;;;32.35;17.80;;;;;;;12.30;72.37;100411.91;4947108;29;20068;-90
2023/09/04 03:04:34;;;;;;;29.65;18.67;;;;;;;12.28;72.22;100414.50;4942897;29;20044;-89
2023/09/04 03:07:00;;;;;;;34.08;18.60;;;;;;;12.47;72.24;100430.03;4945392;29;20118;-84
2023/09/04 03:09:27;;;;;;;35.80;18.52;;;;;;;12.38;72.23;100409.22;4939361;29;20051;-87
2023/09/04 03:11:55;;;;;;;34.13;18.00;;;;;;;12.50;72.29;100411.75;4953227;29;20039;-86
2023/09/04 03:14:21;;;;;;;31.90;18.65;;;;;;;12.56;72.43;100416.94;4924668;29;20044;-86
2023/09/04 03:16:48;;;;;;;33.70;17.95;;;;;;;12.55;72.10;100409.13;4922441;29;20043;-84
2023/09/04 03:19:14;;;;;;;36.67;17.80;;;;;;;12.69;72.34;100432.53;4949201;28;20189;-85
2023/09/04 03:21:40;;;;;;;33.25;16.45;;;;;;;12.79;72.33;100444.63;4937698;29;20035;-84
2023/09/04 03:24:07;;;;;;;33.00;17.55;;;;;;;12.58;71.98;100407.34;4935079;29;20048;-82
2023/09/04 03:26:33;;;;;;;33.47;17.98;;;;;;;12.75;72.29;100432.44;4936350;29;20039;-84
2023/09/04 03:28:59;;;;;;;37.00;19.15;;;;;;;12.81;72.10;100435.88;4949363;29;20055;-82
2023/09/04 03:31:25;;;;;;;37.75;17.05;;;;;;;12.74;72.13;100418.53;4935784;29;20040;-84
2023/09/04 03:33:53;;;;;;;33.85;16.13;;;;;;;12.97;71.87;100438.38;4914759;29;20494;-81
2023/09/04 03:36:22;;;;;;;34.20;17.98;;;;;;;13.08;71.63;100449.59;4932242;29;20059;-81
2023/09/04 03:38:48;;;;;;;27.65;16.23;;;;;;;13.05;72.48;100420.88;4913482;29;20105;-81
2023/09/04 03:41:14;;;;;;;46.05;18.55;;;;;;;13.38;72.03;100457.16;4936828;29;20040;-86
2023/09/04 03:43:41;;;;;;;37.25;17.80;;;;;;;13.45;72.29;100452.78;4937280;29;20043;-85
2023/09/04 03:46:12;;;;;;;32.95;17.27;;;;;;;13.42;72.16;100417.06;4899876;29;20533;-85
2023/09/04 03:48:38;;;;;;;33.17;16.90;;;;;;;13.84;72.02;100453.22;4929972;29;20134;-78
2023/09/04 03:51:04;;;;;;;38.42;18.02;;;;;;;14.03;72.07;100452.97;4945469;29;20320;-80
2023/09/04 03:53:33;;;;;;;32.70;16.70;;;;;;;14.20;71.85;100458.84;4943826;29;20044;-79
2023/09/04 03:56:06;;;;;;;34.40;16.77;;;;;;;14.11;71.66;100402.28;4928588;29;20698;-77
2023/09/04 03:58:32;;;;;;;32.42;16.77;;;;;;;14.53;71.42;100451.44;4930132;29;20046;-78
2023/09/04 04:00:58;;;;;;;31.70;17.02;;;;;;;14.73;71.42;100451.13;4945651;28;20051;-78
2023/09/04 04:03:27;;;;;;;31.42;16.58;;;;;;;14.57;71.04;100382.38;4908684;29;20379;-77
2023/09/04 04:05:53;;;;;;;35.58;17.52;;;;;;;15.05;70.78;100434.03;4929034;29;20298;-79
2023/09/04 04:08:20;;;;;;;31.17;17.48;;;;;;;15.15;70.36;100420.75;4911419;29;20043;-79
2023/09/04 04:10:45;;;;;;;29.90;16.35;;;;;;;15.46;70.28;100438.53;4943614;29;20131;-77
2023/09/04 04:13:13;;;;;;;32.90;16.35;;;;;;;15.68;69.96;100444.22;4929060;29;20146;-76
2023/09/04 04:15:41;;;;;;;29.58;16.48;;;;;;;15.63;69.77;100391.88;4944279;28;20036;-76
2023/09/04 04:18:09;;;;;;;34.53;16.00;;;;;;;16.06;69.41;100428.63;4946058;28;20585;-80
2023/09/04 04:20:35;;;;;;;34.22;15.27;;;;;;;16.17;69.21;100410.88;4931596;29;20040;-79
2023/09/04 04:23:01;;;;;;;28.42;15.77;;;;;;;16.45;68.90;100420.75;4947559;28;20051;-78
2023/09/04 04:25:27;;;;;;;29.60;15.52;;;;;;;16.49;68.32;100387.41;4950300;28;20063;-78
2023/09/04 04:27:54;;;;;;;28.63;14.93;;;;;;;17.01;68.13;100427.31;4931421;29;20056;-85
2023/09/04 04:30:20;;;;;;;21.45;13.60;;;;;;;17.32;67.84;100434.41;4919165;29;20050;-84
2023/09/04 04:32:49;;;;;;;28.58;14.40;;;;;;;17.63;67.31;100432.72;4912903;29;20406;-79
2023/09/04 04:35:16;;;;;;;25.77;13.85;;;;;;;17.89;67.03;100422.25;4914447;29;20103;-74
2023/09/04 04:37:42;;;;;;;25.67;13.38;;;;;;;18.18;66.56;100425.00;4931830;29;20040;-79
2023/09/04 04:40:09;;;;;;;24.20;13.38;;;;;;;18.53;66.23;100441.44;4945904;29;20131;-80
2023/09/04 04:42:39;;;;;;;28.10;13.65;;;;;;;18.80;65.72;100446.75;4928190;29;20044;-79
2023/09/04 04:45:08;;;;;;;23.85;13.75;;;;;;;19.01;65.20;100437.28;4929920;29;20042;-79
2023/09/04 04:47:35;;;;;;;23.58;13.43;;;;;;;18.96;65.08;100387.34;4945656;28;20054;-78
2023/09/04 04:50:01;;;;;;;21.98;12.90;;;;;;;19.60;64.80;100451.09;4945599;29;20099;-77
2023/09/04 04:52:27;;;;;;;22.90;12.80;;;;;;;19.81;64.05;100433.59;4911439;29;20076;-81
2023/09/04 04:54:54;;;;;;;18.77;12.07;;;;;;;20.00;63.77;100411.78;4945638;28;20051;-81
2023/09/04 04:57:20;;;;;;;24.30;12.52;;;;;;;20.44;63.06;100430.31;4928564;29;20051;-79
2023/09/04 04:59:46;;;;;;;21.42;11.35;;;;;;;20.82;62.47;100450.03;4950351;28;20051;-79
2023/09/04 05:02:17;;;;;;;12.95;9.85;;;;;;;21.15;62.16;100442.44;4935113;29;20039;-79
2023/09/04 05:04:47;;;;;;;15.40;9.10;;;;;;;21.74;61.46;100436.38;4927652;29;20514;-79
2023/09/04 05:07:16;;;;;;;17.30;8.48;;;;;;;23.06;60.57;100427.47;4926973;29;20049;-77
2023/09/04 05:09:42;;;;;;;15.88;8.23;;;;;;;24.64;58.55;100392.38;4928260;29;20132;-77
2023/09/04 05:12:08;;;;;;;10.68;8.10;;;;;;;26.48;54.72;100419.34;4927242;29;20039;-77
2023/09/04 05:14:35;;;;;;;9.90;7.28;;;;;;;27.42;52.11;100421.00;4928752;29;20054;-79
2023/09/04 05:17:02;;;;;;;14.43;8.50;;;;;;;28.44;48.88;100390.63;4928465;29;20064;-76
2023/09/04 05:19:29;;;;;;;14.00;7.93;;;;;;;29.54;46.24;100363.47;4911841;29;20048;-77
2023/09/04 05:21:55;;;;;;;15.60;8.07;;;;;;;30.83;43.22;100377.97;4926882;29;20450;-77
2023/09/04 05:24:21;;;;;;;12.82;8.70;;;;;;;31.96;41.00;100370.00;4896715;29;20043;-76
2023/09/04 05:26:47;;;;;;;10.23;7.80;;;;;;;33.05;38.60;100406.75;4925519;29;20048;-76
2023/09/04 05:29:13;;;;;;;11.13;8.18;;;;;;;33.97;37.02;100414.19;4941260;29;20133;-76
2023/09/04 05:31:39;;;;;;;13.05;9.63;;;;;;;34.77;35.07;100389.13;4925768;29;20079;-76
2023/09/04 05:34:05;;;;;;;13.85;8.43;;;;;;;35.59;33.67;100392.34;4946846;29;20047;-79
2023/09/04 05:36:31;;;;;;;12.43;8.82;;;;;;;36.15;31.72;100393.72;4933064;29;20115;-81
2023/09/04 05:38:57;;;;;;;15.60;8.68;;;;;;;36.86;30.31;100394.09;4945978;29;20712;-78
2023/09/04 05:41:27;;;;;;;11.10;8.90;;;;;;;37.47;29.60;100388.19;4923793;29;20043;-84
2023/09/04 05:43:53;;;;;;;16.48;9.57;;;;;;;38.14;28.15;100375.13;4934886;29;20074;-83
2023/09/04 05:46:19;;;;;;;8.10;6.85;;;;;;;38.84;27.14;100388.69;4918680;29;20051;-83
2023/09/04 05:48:46;;;;;;;9.77;6.55;;;;;;;39.24;25.86;100348.44;4934129;29;20039;-83
2023/09/04 05:51:12;;;;;;;10.20;6.45;;;;;;;39.85;25.05;100357.38;4932706;29;20050;-83
2023/09/04 05:53:56;;;;;;;8.35;6.55;;;;;;;40.27;24.02;100322.19;4920790;29;20470;-82
2023/09/04 05:56:22;;;;;;;9.82;7.22;;;;;;;40.98;23.27;100336.75;4947763;28;20050;-84
2023/09/04 05:58:50;;;;;;;13.13;7.50;;;;;;;41.76;22.70;100371.97;4931089;29;20143;-80
2023/09/04 06:01:17;;;;;;;11.93;7.43;;;;;;;42.09;21.56;100353.97;4933174;29;20051;-86
2023/09/04 06:03:46;;;;;;;10.80;7.25;;;;;;;42.44;21.19;100371.03;4954091;29;20051;-84
2023/09/04 06:06:13;;;;;;;14.32;8.18;;;;;;;42.73;20.77;100368.06;4936273;29;20137;-85
2023/09/04 06:08:39;;;;;;;11.13;8.00;;;;;;;42.91;20.64;100366.63;4933172;29;20043;-83
2023/09/04 06:11:05;;;;;;;13.27;7.88;;;;;;;43.33;19.58;100378.09;4933648;29;20098;-84
2023/09/04 06:13:32;;;;;;;11.35;8.30;;;;;;;43.71;19.32;100382.75;4935839;29;20063;-84
2023/09/04 06:15:59;;;;;;;12.93;8.00;;;;;;;43.55;18.94;100343.00;4908583;29;20039;-84
2023/09/04 06:18:28;;;;;;;15.75;8.05;;;;;;;44.18;18.62;100393.44;4934896;29;20047;-84
2023/09/04 06:20:54;;;;;;;15.50;7.90;;;;;;;44.67;18.43;100362.66;4935573;29;20043;-86
2023/09/04 06:23:26;;;;;;;11.68;7.38;;;;;;;45.28;17.81;100387.59;4936865;29;20130;-85
2023/09/04 06:25:52;;;;;;;13.90;8.35;;;;;;;44.62;17.54;100385.31;4918856;29;20047;-83
2023/09/04 06:28:18;;;;;;;12.68;8.70;;;;;;;43.84;17.93;100390.06;4932267;29;20375;-84
2023/09/04 06:30:45;;;;;;;16.85;8.68;;;;;;;43.17;18.07;100385.66;4948383;29;20063;-83
2023/09/04 06:33:17;;;;;;;17.70;8.73;;;;;;;42.77;18.32;100396.69;4931398;29;20036;-84
2023/09/04 06:35:43;;;;;;;13.38;9.05;;;;;;;42.96;18.26;100405.09;4946552;28;20174;-84
2023/09/04 06:38:14;;;;;;;23.10;8.32;;;;;;;43.40;17.77;100402.69;4916750;29;20049;-85
2023/09/04 06:40:43;;;;;;;15.80;8.50;;;;;;;44.31;17.26;100399.91;4936772;29;20198;-82
2023/09/04 06:43:09;;;;;;;13.87;8.60;;;;;;;45.07;16.65;100413.56;4930223;29;20051;-84
2023/09/04 06:45:37;;;;;;;17.73;9.25;;;;;;;45.42;16.38;100408.34;4939451;29;20298;-84
2023/09/04 06:48:06;;;;;;;16.08;8.38;;;;;;;45.73;15.98;100354.25;4946826;29;20039;-85
2023/09/04 06:50:35;;;;;;;18.48;8.18;;;;;;;45.94;15.31;100364.97;4915771;29;20043;-81
2023/09/04 06:53:02;;;;;;;13.88;8.32;;;;;;;45.70;15.62;100348.41;4929114;29;20039;-84
2023/09/04 06:55:28;;;;;;;13.30;8.85;;;;;;;45.97;15.71;100380.97;4927445;29;20047;-83
2023/09/04 06:58:00;;;;;;;12.55;8.68;;;;;;;46.08;15.35;100380.19;4914358;29;20107;-84
2023/09/04 07:00:26;;;;;;;15.25;9.13;;;;;;;46.10;15.35;100396.47;4929589;29;20138;-86
2023/09/04 07:02:52;;;;;;;14.68;8.48;;;;;;;45.53;15.41;100416.84;4930980;29;20463;-87
2023/09/04 07:05:21;;;;;;;11.52;8.05;;;;;;;43.90;16.15;100360.94;4947504;28;20039;-84
2023/09/04 07:07:48;;;;;;;14.57;7.65;;;;;;;43.23;16.62;100377.69;4912997;29;20079;-83
2023/09/04 07:10:14;;;;;;;13.32;8.05;;;;;;;42.66;16.75;100386.41;4929720;29;20051;-81
2023/09/04 07:12:41;;;;;;;13.05;7.80;;;;;;;41.66;17.58;100349.69;4914718;29;20114;-83
2023/09/04 07:15:07;;;;;;;10.40;7.85;;;;;;;41.60;18.21;100411.38;4946937;29;20173;-83
2023/09/04 07:17:33;;;;;;;13.30;7.95;;;;;;;40.58;18.58;100381.78;4927698;29;20035;-84
2023/09/04 07:20:00;;;;;;;11.00;8.10;;;;;;;39.83;18.81;100386.69;4916273;29;20044;-84
2023/09/04 07:22:26;;;;;;;13.52;8.25;;;;;;;39.20;19.51;100358.00;4933434;29;20036;-88
2023/09/04 07:24:52;;;;;;;11.82;7.72;;;;;;;39.32;19.66;100382.91;4952644;28;20075;-88
2023/09/04 07:27:18;;;;;;;11.35;7.68;;;;;;;39.44;19.50;100356.03;4944995;29;20039;-80
2023/09/04 07:29:44;;;;;;;19.92;7.60;;;;;;;40.19;19.29;100408.44;4933756;29;20058;-86
2023/09/04 07:32:11;;;;;;;11.63;7.55;;;;;;;40.31;19.37;100381.53;4954514;28;20082;-84
2023/09/04 07:34:38;;;;;;;13.65;8.13;;;;;;;40.36;18.71;100381.81;4932995;29;20047;-84
2023/09/04 07:37:04;;;;;;;11.52;7.47;;;;;;;40.43;18.91;100330.06;4952014;29;20059;-85
2023/09/04 07:39:30;;;;;;;14.48;7.95;;;;;;;41.08;18.49;100378.13;4948457;28;20486;-84
2023/09/04 07:41:56;;;;;;;19.38;7.60;;;;;;;41.01;18.51;100391.72;4934026;29;20042;-83
2023/09/04 07:44:24;;;;;;;10.07;7.88;;;;;;;41.23;18.55;100408.03;4917866;29;20045;-86
2023/09/04 07:46:51;;;;;;;11.32;7.53;;;;;;;41.23;18.00;100414.38;4931958;29;20626;-83
2023/09/04 07:49:17;;;;;;;10.55;6.97;;;;;;;40.81;18.16;100391.63;4917936;29;20043;-80
2023/09/04 07:51:46;;;;;;;12.75;6.30;;;;;;;40.78;18.57;100408.38;4933549;29;20039;-78
2023/09/04 07:54:12;;;;;;;12.10;6.53;;;;;;;40.71;18.27;100386.53;4913984;28;20089;-85
2023/09/04 07:56:38;;;;;;;9.35;6.57;;;;;;;40.68;18.28;100408.72;4918215;29;20058;-81
2023/09/04 07:59:05;;;;;;;14.18;7.30;;;;;;;40.50;18.58;100417.34;4940057;29;20142;-80
2023/09/04 08:01:32;;;;;;;9.30;6.78;;;;;;;40.61;18.29;100385.97;4946945;29;20071;-82
2023/09/04 08:04:01;;;;;;;11.43;5.55;;;;;;;41.46;17.60;100418.69;4931762;29;20050;-84
2023/09/04 08:06:27;;;;;;;11.07;5.32;;;;;;;42.62;17.12;100426.16;4934160;29;20043;-82
2023/09/04 08:08:53;;;;;;;10.18;5.93;;;;;;;43.49;16.67;100410.44;4931493;29;20067;-84
2023/09/04 08:11:19;;;;;;;9.93;5.22;;;;;;;44.25;15.93;100429.00;4937675;29;20055;-86
2023/09/04 08:13:46;;;;;;;11.90;9.27;;;;;;;45.05;15.06;100415.72;4904293;29;20043;-79
2023/09/04 08:16:14;;;;;;;16.65;11.95;;;;;;;45.45;14.75;100376.81;4923931;29;20340;-77
2023/09/04 08:18:40;;;;;;;10.48;7.85;;;;;;;45.82;14.33;100393.22;4945948;29;20047;-78
2023/09/04 08:21:07;;;;;;;12.07;7.00;;;;;;;46.28;13.63;100398.25;4931111;29;20049;-86
2023/09/04 08:23:33;;;;;;;8.13;4.82;;;;;;;46.30;13.94;100393.38;4949116;28;20043;-87
2023/09/04 08:26:00;;;;;;;8.93;6.63;;;;;;;45.93;13.53;100390.75;4921624;29;20035;-84
2023/09/04 08:28:29;;;;;;;4.95;4.55;;;;;;;45.88;13.50;100414.28;4934050;29;20619;-81
2023/09/04 08:30:55;;;;;;;6.37;4.00;;;;;;;45.26;13.62;100382.34;4946846;28;20065;-82
2023/09/04 08:33:22;;;;;;;9.38;6.75;;;;;;;44.97;13.93;100409.44;4932672;29;20057;-85
2023/09/04 08:35:49;;;;;;;8.40;4.50;;;;;;;44.79;13.93;100423.97;4921416;29;20047;-85
2023/09/04 08:38:15;;;;;;;7.18;4.65;;;;;;;44.94;13.95;100398.09;4949036;28;20142;-83
2023/09/04 08:40:41;;;;;;;8.43;5.25;;;;;;;45.15;13.74;100412.44;4900570;29;20106;-83
2023/09/04 08:43:08;;;;;;;9.75;6.55;;;;;;;45.50;13.60;100415.41;4947439;28;20485;-83
2023/09/04 08:45:36;;;;;;;5.38;4.45;;;;;;;45.82;12.90;100414.38;4948195;29;20220;-76
2023/09/04 08:48:03;;;;;;;7.57;4.40;;;;;;;46.01;13.03;100417.91;4944736;28;20074;-78
2023/09/04 08:50:30;;;;;;;6.07;3.97;;;;;;;45.81;13.09;100397.03;4941736;28;20239;-78
2023/09/04 08:52:56;;;;;;;9.35;5.47;;;;;;;46.22;12.57;100434.97;4927130;29;20036;-80
2023/09/04 08:55:22;;;;;;;9.32;4.18;;;;;;;46.50;13.14;100403.22;4925027;29;20511;-84
2023/09/04 08:57:49;;;;;;;10.07;4.60;;;;;;;46.96;12.30;100414.50;4941291;28;20654;-78
2023/09/04 09:00:16;;;;;;;7.15;4.15;;;;;;;46.84;12.71;100426.31;4944706;29;20070;-80
2023/09/04 09:02:43;;;;;;;4.45;3.35;;;;;;;46.92;12.35;100412.22;4902127;29;20032;-80
2023/09/04 09:05:12;;;;;;;5.53;3.30;;;;;;;46.97;11.95;100383.13;4919940;29;20107;-79
2023/09/04 09:07:39;;;;;;;5.78;4.93;;;;;;;47.32;11.96;100412.50;4914378;29;20123;-82
2023/09/04 09:10:08;;;;;;;4.63;3.90;;;;;;;47.40;11.69;100394.75;4950608;29;20125;-83
2023/09/04 09:12:34;;;;;;;6.97;4.25;;;;;;;47.73;11.97;100404.25;4928152;29;20042;-80
2023/09/04 09:15:01;;;;;;;15.15;8.60;;;;;;;48.22;11.60;100401.81;4948370;28;20093;-81
2023/09/04 09:17:29;;;;;;;4.80;4.03;;;;;;;48.72;11.08;100407.59;4929205;29;20058;-79
2023/09/04 09:19:55;;;;;;;21.45;10.95;;;;;;;48.70;10.86;100424.41;4942496;28;20043;-80
2023/09/04 09:22:22;;;;;;;11.15;6.82;;;;;;;48.23;11.07;100417.28;4944001;29;20129;-79
2023/09/04 09:25:03;;;;;;;4.90;4.30;;;;;;;47.68;11.08;100393.94;4926989;29;20054;-79
2023/09/04 09:27:33;;;;;;;9.18;4.55;;;;;;;47.29;11.66;100421.25;4940852;28;20051;-77
2023/09/04 09:30:00;;;;;;;;;;;;;;;47.00;11.72;100421.19;4922030;29;20130;-75
2023/09/04 09:32:33;;;;;;;4.30;3.72;;;;;;;46.47;11.96;100419.09;4923064;29;19972;-77
2023/09/04 09:35:00;;;;;;;;;;;;;;;46.33;11.74;100420.38;4925149;29;20062;-78
2023/09/04 09:37:31;;;;;;;9.25;5.75;;;;;;;45.84;12.08;100407.56;4922114;29;20257;-81
2023/09/04 09:39:57;;;;;;;5.85;4.05;;;;;;;45.40;12.10;100418.72;4905541;29;20043;-80
2023/09/04 09:42:29;;;;;;;5.25;4.05;;;;;;;43.91;13.16;100384.53;4940468;28;20387;-77
2023/09/04 09:44:55;;;;;;;8.40;4.40;;;;;;;43.08;13.35;100408.00;4907630;29;20054;-80
2023/09/04 09:47:26;;;;;;;6.95;5.57;;;;;;;42.15;14.19;100386.75;4908530;29;20086;-76
2023/09/04 09:49:55;;;;;;;7.28;3.85;;;;;;;41.61;14.89;100383.03;4922391;29;20502;-73
2023/09/04 09:52:21;;;;;;;7.65;3.45;;;;;;;40.91;15.20;100377.63;4937449;28;20138;-81
2023/09/04 09:54:47;;;;;;;7.32;3.35;;;;;;;40.51;15.52;100413.56;4938094;29;20135;-76
2023/09/04 09:57:18;;;;;;;6.55;3.22;;;;;;;39.87;15.86;100416.06;4921905;29;20462;-77
2023/09/04 09:59:48;;;;;;;6.45;3.08;;;;;;;39.12;16.60;100396.22;4926467;29;20050;-78
2023/09/04 10:02:21;;;;;;;6.10;2.95;;;;;;;38.21;17.00;100389.66;4909268;29;20134;-77
2023/09/04 10:04:47;;;;;;;5.13;3.40;;;;;;;37.86;17.38;100418.19;4925456;29;20052;-82
2023/09/04 10:07:20;;;;;;;6.03;3.47;;;;;;;37.56;17.65;100424.28;4941287;29;20224;-79
2023/09/04 10:09:51;;;;;;;5.20;2.90;;;;;;;37.12;17.54;100417.44;4913275;29;20050;-83
2023/09/04 10:12:35;;;;;;;6.35;3.22;;;;;;;36.90;18.06;100403.56;4943402;28;20043;-81
2023/09/04 10:15:03;;;;;;;5.40;3.22;;;;;;;36.98;18.28;100423.56;4918750;29;20063;-80
2023/09/04 10:17:51;;;;;;;5.80;3.38;;;;;;;37.06;18.53;100428.97;4947538;28;20118;-81
2023/09/04 10:20:20;;;;;;;9.18;3.85;;;;;;;37.00;18.75;100425.09;4901648;29;20038;-86
2023/09/04 10:22:49;;;;;;;9.30;4.00;;;;;;;36.65;19.12;100413.56;4937486;29;20051;-87
2023/09/04 10:25:35;;;;;;;5.70;4.03;;;;;;;36.45;20.32;100432.88;4933072;29;20043;-81
2023/09/04 10:28:17;;;;;;;10.80;5.22;;;;;;;35.95;19.99;100402.09;4919366;29;20043;-82
2023/09/04 10:30:48;;;;;;;13.88;7.78;;;;;;;35.78;20.80;100425.56;4942037;28;20522;-85
2023/09/04 10:33:15;;;;;;;9.98;6.43;;;;;;;35.23;20.42;100376.28;4935958;29;20043;-82
2023/09/04 10:35:42;;;;;;;11.32;6.93;;;;;;;35.22;21.03;100419.69;4951150;28;20078;-82
2023/09/04 10:38:09;;;;;;;9.40;5.00;;;;;;;34.96;21.22;100410.59;4949141;29;20138;-77
2023/09/04 10:40:35;;;;;;;5.68;4.28;;;;;;;34.70;21.61;100410.53;4934131;29;20039;-79
2023/09/04 10:43:05;;;;;;;5.38;3.50;;;;;;;34.30;21.58;100403.75;4914871;29;20077;-79
2023/09/04 10:45:32;;;;;;;21.15;15.00;;;;;;;33.89;21.79;100404.97;4911925;29;20097;-79
2023/09/04 10:48:01;;;;;;;8.68;4.95;;;;;;;33.34;22.41;100390.47;4943494;29;20051;-77
2023/09/04 10:50:27;;;;;;;8.20;2.85;;;;;;;33.22;22.55;100432.06;4945469;29;20059;-76
2023/09/04 10:52:54;;;;;;;5.55;2.70;;;;;;;32.78;22.47;100420.91;4913320;29;20058;-76
2023/09/04 10:55:20;;;;;;;7.15;3.53;;;;;;;32.06;22.76;100380.78;4931101;29;20502;-80
2023/09/04 10:57:56;;;;;;;4.25;2.90;;;;;;;32.01;23.41;100421.56;4944696;28;20188;-79
2023/09/04 11:00:28;;;;;;;5.05;2.70;;;;;;;31.92;23.66;100439.38;4929194;29;20072;-78
2023/09/04 11:02:56;;;;;;;5.07;2.90;;;;;;;31.69;23.85;100427.94;4944337;28;20047;-80
2023/09/04 11:05:24;;;;;;;3.55;2.50;;;;;;;31.45;23.94;100430.97;4930149;29;20040;-81
2023/09/04 11:07:50;;;;;;;7.28;2.50;;;;;;;31.40;24.19;100439.44;4928153;29;20063;-78
2023/09/04 11:10:18;;;;;;;5.57;2.95;;;;;;;31.29;24.10;100447.56;4931090;29;20098;-80
2023/09/04 11:12:45;;;;;;;6.20;2.75;;;;;;;30.89;24.40;100408.84;4928562;29;20051;-81
2023/09/04 11:15:16;;;;;;;6.00;2.33;;;;;;;31.14;25.05;100442.56;4913413;29;20044;-77
2023/09/04 11:17:49;;;;;;;5.78;2.80;;;;;;;30.93;24.92;100404.91;4909855;29;20457;-76
2023/09/04 11:20:16;;;;;;;3.13;2.55;;;;;;;31.11;24.84;100437.41;4921442;29;20043;-74